createdAt,value
2023-02-18T00:00:21.114Z,9.77
2023-02-18T00:02:52.621Z,9.70
2023-02-18T00:05:19.871Z,14.38
2023-02-18T00:07:46.775Z,14.38
2023-02-18T00:10:15.574Z,11.85
2023-02-18T00:12:42.682Z,17.00
2023-02-18T00:15:09.999Z,17.20
2023-02-18T00:17:45.231Z,12.02
2023-02-18T00:20:15.000Z,4.90
2023-02-18T00:22:41.713Z,9.18
2023-02-18T00:25:10.972Z,12.95
2023-02-18T00:27:37.827Z,17.70
2023-02-18T00:30:08.053Z,14.15
2023-02-18T00:32:38.100Z,15.07
2023-02-18T00:35:05.525Z,15.85
2023-02-18T00:37:41.773Z,12.25
2023-02-18T00:40:17.801Z,10.55
2023-02-18T00:42:44.785Z,18.15
2023-02-18T00:45:16.799Z,10.30
2023-02-18T00:47:43.672Z,4.35
2023-02-18T00:50:11.068Z,5.07
2023-02-18T00:53:18.277Z,9.55
2023-02-18T00:55:49.682Z,14.73
2023-02-18T00:58:19.516Z,14.00
2023-02-18T01:00:46.823Z,12.68
2023-02-18T01:03:14.264Z,16.50
2023-02-18T01:05:41.742Z,9.30
2023-02-18T01:08:22.041Z,20.55
2023-02-18T01:14:25.355Z,7.50
2023-02-18T01:17:01.376Z,11.13
2023-02-18T01:19:28.182Z,13.20
2023-02-18T01:21:55.108Z,13.45
2023-02-18T01:24:22.254Z,12.68
2023-02-18T01:26:49.152Z,12.75
2023-02-18T01:29:21.023Z,9.98
2023-02-18T01:31:48.830Z,10.23
2023-02-18T01:34:15.720Z,14.65
2023-02-18T01:36:44.625Z,16.90
2023-02-18T01:39:14.393Z,13.40
2023-02-18T01:41:41.422Z,15.32
2023-02-18T01:44:11.214Z,15.35
2023-02-18T01:46:38.245Z,16.88
2023-02-18T01:49:06.725Z,15.88
2023-02-18T01:51:45.184Z,10.93
2023-02-18T01:54:17.848Z,8.63
2023-02-18T01:56:57.262Z,14.07
2023-02-18T01:59:50.238Z,20.08
2023-02-18T02:02:25.348Z,15.05
2023-02-18T02:04:55.108Z,13.45
2023-02-18T02:07:25.131Z,15.95
2023-02-18T02:15:15.398Z,16.40
2023-02-18T02:18:21.725Z,16.50
2023-02-18T02:21:25.739Z,9.77
2023-02-18T02:23:52.361Z,16.15
2023-02-18T02:26:32.000Z,16.23
2023-02-18T02:29:30.465Z,15.43
2023-02-18T02:32:32.401Z,19.42
2023-02-18T02:35:26.721Z,21.90
2023-02-18T02:38:07.772Z,19.17
2023-02-18T02:40:52.361Z,19.13
2023-02-18T02:44:07.234Z,14.93
2023-02-18T02:46:44.371Z,15.85
2023-02-18T02:49:45.393Z,11.63
2023-02-18T02:52:14.934Z,12.68
2023-02-18T02:54:41.614Z,7.60
2023-02-18T02:57:28.537Z,12.52
2023-02-18T03:00:00.632Z,8.18
2023-02-18T03:03:07.692Z,7.63
2023-02-18T03:08:17.796Z,7.72
2023-02-18T03:11:04.629Z,8.48
2023-02-18T03:13:53.767Z,7.75
2023-02-18T03:16:45.718Z,6.20
2023-02-18T03:19:37.056Z,8.43
2023-02-18T03:22:25.468Z,9.43
2023-02-18T03:24:54.919Z,6.50
2023-02-18T03:27:32.625Z,8.70
2023-02-18T03:30:10.238Z,4.25
2023-02-18T03:32:37.128Z,8.35
2023-02-18T03:35:10.246Z,5.80
2023-02-18T03:37:42.893Z,8.52
2023-02-18T03:42:41.714Z,4.85
2023-02-18T03:45:08.497Z,5.47
2023-02-18T03:47:35.492Z,7.90
2023-02-18T03:50:02.313Z,6.95
2023-02-18T03:52:32.100Z,6.53
2023-02-18T03:54:58.848Z,5.45
2023-02-18T03:57:25.695Z,4.00
2023-02-18T03:59:52.418Z,7.82
2023-02-18T04:02:19.087Z,7.57
2023-02-18T04:04:45.736Z,5.53
2023-02-18T04:07:12.604Z,7.60
2023-02-18T04:09:44.488Z,7.25
2023-02-18T04:12:11.184Z,7.20
2023-02-18T04:14:37.823Z,7.15
2023-02-18T04:17:04.438Z,7.20
2023-02-18T04:19:31.131Z,7.97
2023-02-18T04:21:58.045Z,7.78
2023-02-18T04:24:26.692Z,8.95
2023-02-18T04:26:53.342Z,6.85
2023-02-18T04:29:19.952Z,5.38
2023-02-18T04:31:46.695Z,3.85
2023-02-18T04:34:13.490Z,5.32
2023-02-18T04:36:40.152Z,7.78
2023-02-18T04:39:08.222Z,4.57
2023-02-18T04:41:34.894Z,5.68
2023-02-18T04:44:01.746Z,6.13
2023-02-18T04:46:28.640Z,5.22
2023-02-18T04:48:55.348Z,4.50
2023-02-18T04:51:22.007Z,5.93
2023-02-18T04:53:49.972Z,4.28
2023-02-18T04:56:16.620Z,3.33
2023-02-18T04:58:43.323Z,4.47
2023-02-18T05:01:10.902Z,4.40
2023-02-18T05:03:37.639Z,5.45
2023-02-18T05:06:04.670Z,4.18
2023-02-18T05:08:51.306Z,6.10
2023-02-18T05:11:18.184Z,4.43
2023-02-18T05:13:44.856Z,7.38
2023-02-18T05:16:11.909Z,6.72
2023-02-18T05:18:42.008Z,10.02
2023-02-18T05:21:09.093Z,5.18
2023-02-18T05:23:38.798Z,7.25
2023-02-18T05:26:05.504Z,6.90
2023-02-18T05:28:32.296Z,7.10
2023-02-18T05:30:59.107Z,3.90
2023-02-18T05:33:25.851Z,5.90
2023-02-18T05:35:52.601Z,6.53
2023-02-18T05:38:19.814Z,7.38
2023-02-18T05:40:46.540Z,6.97
2023-02-18T05:43:13.528Z,7.18
2023-02-18T05:45:40.193Z,8.18
2023-02-18T05:48:07.356Z,5.40
2023-02-18T05:50:34.518Z,5.70
2023-02-18T05:53:06.937Z,6.90
2023-02-18T05:55:38.891Z,4.78
2023-02-18T05:58:06.525Z,4.28
2023-02-18T06:00:33.485Z,6.35
2023-02-18T06:03:00.334Z,5.38
2023-02-18T06:05:27.107Z,3.55
2023-02-18T06:07:56.303Z,5.72
2023-02-18T06:10:23.343Z,6.20
2023-02-18T06:12:50.271Z,4.50
2023-02-18T06:15:16.964Z,3.92
2023-02-18T06:17:46.657Z,5.38
2023-02-18T06:20:16.409Z,5.65
2023-02-18T06:22:43.102Z,4.05
2023-02-18T06:25:09.751Z,6.43
2023-02-18T06:27:36.457Z,4.95
2023-02-18T06:30:04.044Z,4.45
2023-02-18T06:32:31.061Z,3.85
2023-02-18T06:34:57.688Z,4.40
2023-02-18T06:37:24.359Z,4.07
2023-02-18T06:39:51.057Z,2.85
2023-02-18T06:42:17.704Z,4.95
2023-02-18T06:44:44.310Z,5.25
2023-02-18T06:47:11.237Z,5.60
2023-02-18T06:49:39.002Z,3.40
2023-02-18T06:52:06.209Z,4.43
2023-02-18T06:54:33.914Z,5.90
2023-02-18T06:57:00.652Z,5.30
2023-02-18T06:59:27.527Z,5.85
2023-02-18T07:01:54.457Z,5.10
2023-02-18T07:04:21.132Z,4.68
2023-02-18T07:06:47.815Z,5.30
2023-02-18T07:09:14.518Z,3.40
2023-02-18T07:11:41.192Z,3.10
2023-02-18T07:14:08.419Z,3.67
2023-02-18T07:16:35.163Z,3.13
2023-02-18T07:19:01.874Z,4.80
2023-02-18T07:21:28.542Z,2.03
2023-02-18T07:23:55.203Z,3.75
2023-02-18T07:26:21.931Z,3.20
2023-02-18T07:28:48.522Z,2.35
2023-02-18T07:31:15.449Z,3.35
2023-02-18T07:33:42.120Z,4.22
2023-02-18T07:36:09.939Z,2.90
2023-02-18T07:38:43.025Z,3.35
2023-02-18T07:41:21.633Z,1.85
2023-02-18T07:43:48.990Z,3.83
2023-02-18T07:46:16.123Z,3.35
2023-02-18T07:48:43.453Z,2.80
2023-02-18T07:51:12.034Z,2.65
2023-02-18T07:53:39.578Z,2.33
2023-02-18T07:56:07.041Z,4.13
2023-02-18T07:58:36.408Z,2.53
2023-02-18T08:01:12.003Z,2.50
2023-02-18T08:03:38.845Z,5.70
2023-02-18T08:06:06.616Z,3.05
2023-02-18T08:08:36.684Z,2.67
2023-02-18T08:11:13.379Z,2.20
2023-02-18T08:34:45.040Z,3.38
2023-02-18T08:37:11.750Z,2.88
2023-02-18T08:39:39.884Z,4.07
2023-02-18T08:42:06.853Z,2.20
2023-02-18T08:44:33.502Z,3.88
2023-02-18T08:47:00.150Z,2.92
2023-02-18T08:49:26.978Z,3.50
2023-02-18T08:51:57.289Z,3.33
2023-02-18T08:54:25.075Z,3.08
2023-02-18T08:57:00.488Z,2.70
2023-02-18T08:59:27.277Z,2.85
2023-02-18T09:01:54.037Z,2.25
2023-02-18T09:04:21.442Z,3.15
2023-02-18T09:06:50.171Z,3.38
2023-02-18T09:09:17.942Z,4.72
2023-02-18T09:11:45.672Z,3.20
2023-02-18T09:14:12.390Z,2.50
2023-02-18T09:16:42.296Z,1.98
2023-02-18T09:19:09.438Z,2.45
2023-02-18T09:21:36.452Z,2.63
2023-02-18T09:24:03.274Z,2.45
2023-02-18T09:26:30.072Z,2.28
2023-02-18T09:28:57.469Z,2.38
2023-02-18T09:31:29.253Z,2.25
2023-02-18T09:33:59.058Z,2.40
2023-02-18T09:36:27.219Z,2.45
2023-02-18T09:38:54.328Z,1.77
2023-02-18T09:41:44.591Z,2.42
2023-02-18T09:44:19.732Z,2.85
2023-02-18T09:46:59.425Z,2.80
2023-02-18T09:49:41.695Z,2.33
2023-02-18T09:52:16.406Z,2.67
2023-02-18T09:57:51.128Z,3.63
2023-02-18T10:00:40.113Z,3.92
2023-02-18T10:03:20.180Z,2.60
2023-02-18T10:06:00.443Z,2.40
2023-02-18T10:08:48.242Z,1.15
2023-02-18T10:11:22.384Z,2.08
2023-02-18T10:13:49.878Z,3.10
2023-02-18T10:16:19.347Z,2.33
2023-02-18T10:18:49.759Z,2.95
2023-02-18T10:21:20.690Z,3.20
2023-02-18T10:24:25.577Z,3.08
2023-02-18T10:26:54.701Z,2.10
2023-02-18T10:29:23.020Z,3.15
2023-02-18T10:32:01.681Z,2.22
2023-02-18T10:34:41.296Z,2.85
2023-02-18T10:37:13.360Z,2.13
2023-02-18T10:39:59.703Z,1.83
2023-02-18T10:42:38.704Z,2.40
2023-02-18T11:18:41.726Z,3.20
2023-02-18T11:21:30.138Z,3.65
2023-02-18T11:23:58.299Z,2.72
2023-02-18T11:26:36.680Z,2.45
2023-02-18T11:29:25.926Z,2.50
2023-02-18T11:31:56.868Z,3.03
2023-02-18T11:34:28.580Z,2.67
2023-02-18T11:36:56.092Z,2.22
2023-02-18T11:39:28.338Z,3.70
2023-02-18T11:42:04.545Z,2.50
2023-02-18T11:44:37.954Z,1.85
2023-02-18T11:47:07.387Z,2.92
2023-02-18T11:49:35.748Z,2.50
2023-02-18T11:52:14.064Z,2.30
2023-02-18T11:54:40.946Z,3.67
2023-02-18T11:57:13.986Z,3.47
2023-02-18T11:59:42.434Z,3.67
2023-02-18T12:02:12.440Z,3.25
2023-02-18T12:04:55.233Z,2.45
2023-02-18T12:07:42.895Z,3.38
2023-02-18T12:10:36.280Z,3.50
2023-02-18T12:13:22.353Z,3.97
2023-02-18T12:16:03.075Z,2.75
2023-02-18T12:19:00.396Z,2.47
2023-02-18T12:21:45.049Z,2.50
2023-02-18T12:24:39.196Z,3.35
2023-02-18T12:27:16.453Z,2.10
2023-02-18T12:29:58.515Z,2.53
2023-02-18T12:32:43.759Z,3.42
2023-02-18T12:50:59.051Z,3.35
2023-02-18T12:53:53.697Z,3.35
2023-02-18T13:00:33.758Z,2.90
2023-02-18T13:03:40.669Z,3.88
2023-02-18T13:06:25.261Z,2.88
2023-02-18T13:08:55.204Z,3.10
2023-02-18T13:11:31.208Z,2.75
2023-02-18T13:14:04.310Z,3.30
2023-02-18T13:16:32.705Z,2.47
2023-02-18T13:19:26.271Z,3.10
2023-02-18T13:21:58.102Z,3.13
2023-02-18T13:24:37.156Z,2.03
2023-02-18T13:27:36.432Z,2.72
2023-02-18T13:30:23.862Z,4.53
2023-02-18T13:35:49.399Z,2.80
2023-02-18T13:38:26.715Z,2.95
2023-02-18T13:40:53.912Z,4.18
2023-02-18T13:43:36.138Z,2.20
2023-02-18T13:46:07.101Z,3.10
2023-02-18T13:49:07.955Z,2.60
2023-02-18T13:51:51.969Z,3.22
2023-02-18T13:54:21.328Z,2.22
2023-02-18T13:57:05.065Z,3.63
2023-02-18T13:59:38.687Z,3.08
2023-02-18T14:02:21.322Z,3.72
2023-02-18T14:08:39.891Z,3.03
2023-02-18T14:11:12.595Z,2.95
2023-02-18T14:13:43.737Z,3.47
2023-02-18T14:16:11.443Z,3.50
2023-02-18T14:18:41.165Z,3.03
2023-02-18T14:21:14.172Z,2.25
2023-02-18T14:23:42.416Z,3.17
2023-02-18T14:26:15.241Z,2.80
2023-02-18T14:28:47.535Z,2.60
2023-02-18T14:31:17.117Z,2.63
2023-02-18T14:33:50.476Z,3.20
2023-02-18T14:36:45.675Z,2.50
2023-02-18T14:39:41.724Z,4.03
2023-02-18T14:42:08.341Z,3.15
2023-02-18T14:45:10.554Z,3.05
2023-02-18T14:48:09.642Z,2.10
2023-02-18T14:50:38.881Z,3.00
2023-02-18T14:53:20.103Z,1.77
2023-02-18T14:55:50.301Z,1.98
2023-02-18T14:58:39.426Z,2.00
2023-02-18T15:01:15.703Z,4.03
2023-02-18T15:03:42.553Z,2.75
2023-02-18T15:06:32.673Z,3.45
2023-02-18T15:12:50.595Z,3.45
2023-02-18T15:15:17.989Z,3.00
2023-02-18T15:17:49.837Z,4.00
2023-02-18T15:20:17.081Z,3.25
2023-02-18T15:22:44.634Z,3.10
2023-02-18T15:25:15.997Z,3.38
2023-02-18T15:27:47.011Z,2.35
2023-02-18T15:30:18.774Z,4.18
2023-02-18T15:32:53.763Z,3.30
2023-02-18T15:35:23.013Z,1.23
2023-02-18T15:37:55.576Z,3.00
2023-02-18T15:40:31.145Z,3.35
2023-02-18T15:43:01.980Z,2.90
2023-02-18T15:45:34.265Z,3.58
2023-02-18T15:48:02.030Z,3.13
2023-02-18T15:50:32.672Z,3.55
2023-02-18T16:20:07.355Z,3.92
2023-02-18T16:22:40.362Z,3.50
2023-02-18T16:25:14.482Z,3.38
2023-02-18T16:28:00.871Z,4.45
2023-02-18T16:30:30.607Z,4.07
2023-02-18T16:32:58.015Z,3.28
2023-02-18T16:35:27.812Z,3.17
2023-02-18T16:37:57.852Z,4.07
2023-02-18T16:40:35.419Z,2.47
2023-02-18T16:43:11.161Z,3.03
2023-02-18T16:45:53.931Z,2.15
2023-02-18T16:48:29.779Z,3.95
2023-02-18T16:50:59.269Z,4.47
2023-02-18T16:53:26.003Z,4.45
2023-02-18T16:55:52.828Z,4.38
2023-02-18T16:58:19.593Z,3.63
2023-02-18T17:00:47.093Z,4.32
2023-02-18T17:03:14.392Z,4.20
2023-02-18T17:05:44.564Z,4.57
2023-02-18T17:08:15.336Z,3.83
2023-02-18T17:10:42.397Z,3.63
2023-02-18T17:13:23.258Z,2.75
2023-02-18T17:15:52.658Z,4.30
2023-02-18T17:18:19.887Z,5.57
2023-02-18T17:20:48.548Z,5.40
2023-02-18T17:23:16.995Z,4.50
2023-02-18T17:25:45.718Z,4.00
2023-02-18T17:28:12.392Z,2.95
2023-02-18T17:30:42.253Z,4.35
2023-02-18T17:33:15.196Z,3.30
2023-02-18T17:35:41.911Z,5.47
2023-02-18T17:38:16.652Z,5.22
2023-02-18T17:43:15.427Z,1.88
2023-02-18T17:45:50.300Z,4.03
2023-02-18T17:48:16.967Z,2.90
2023-02-18T17:50:44.006Z,4.40
2023-02-18T17:53:12.859Z,5.05
2023-02-18T17:55:41.168Z,3.35
2023-02-18T17:58:08.270Z,5.07
2023-02-18T18:00:44.258Z,5.40
2023-02-18T18:03:13.416Z,5.90
2023-02-18T18:05:43.560Z,6.65
2023-02-18T18:08:10.613Z,8.38
2023-02-18T18:10:50.112Z,3.55
2023-02-18T18:13:22.227Z,7.50
2023-02-18T18:15:49.514Z,4.88
2023-02-18T18:18:18.342Z,8.43
2023-02-18T18:20:54.295Z,9.35
2023-02-18T18:23:21.971Z,8.35
2023-02-18T18:25:55.842Z,8.10
2023-02-18T18:33:50.277Z,8.02
2023-02-18T18:36:19.565Z,6.03
2023-02-18T18:38:47.021Z,7.90
2023-02-18T18:41:15.924Z,6.95
2023-02-18T18:43:58.522Z,6.72
2023-02-18T18:46:25.401Z,8.32
2023-02-18T18:48:52.084Z,5.55
2023-02-18T18:51:24.865Z,6.47
2023-02-18T18:53:51.580Z,7.47
2023-02-18T18:56:18.254Z,6.88
2023-02-18T18:58:45.013Z,6.95
2023-02-18T19:01:23.046Z,6.45
2023-02-18T19:03:49.884Z,4.90
2023-02-18T19:06:17.324Z,6.65
2023-02-18T19:08:45.591Z,5.20
2023-02-18T19:11:19.318Z,9.15
2023-02-18T19:13:46.052Z,6.55
2023-02-18T19:16:23.084Z,6.55
2023-02-18T19:18:50.369Z,9.20
2023-02-18T19:21:19.983Z,9.60
2023-02-18T19:23:46.663Z,5.63
2023-02-18T19:26:15.071Z,5.47
2023-02-18T19:28:41.706Z,8.80
2023-02-18T19:31:11.410Z,3.70
2023-02-18T19:33:39.118Z,10.18
2023-02-18T19:36:08.818Z,8.90
2023-02-18T19:38:35.516Z,11.70
2023-02-18T19:41:12.180Z,8.88
2023-02-18T19:43:43.852Z,8.18
2023-02-18T19:46:16.765Z,15.40
2023-02-18T19:48:43.990Z,14.20
2023-02-18T19:51:11.221Z,9.48
2023-02-18T19:53:38.118Z,12.68
2023-02-18T19:56:07.384Z,11.38
2023-02-18T19:58:34.673Z,10.93
2023-02-18T20:01:01.520Z,8.77
2023-02-18T20:03:31.198Z,8.60
2023-02-18T20:05:58.151Z,16.92
2023-02-18T20:08:24.809Z,15.27
2023-02-18T20:10:58.900Z,14.07
2023-02-18T20:13:26.164Z,13.23
2023-02-18T20:15:53.334Z,14.10
2023-02-18T20:18:20.139Z,10.10
2023-02-18T20:20:50.801Z,10.23
2023-02-18T20:23:17.841Z,7.63
2023-02-18T20:25:47.498Z,10.40
2023-02-18T20:28:14.962Z,11.73
2023-02-18T20:30:42.402Z,4.72
2023-02-18T20:33:09.076Z,10.32
2023-02-18T20:35:35.896Z,5.85
2023-02-18T20:38:02.586Z,9.45
2023-02-18T20:40:29.268Z,10.23
2023-02-18T20:42:57.467Z,10.70
2023-02-18T20:45:24.206Z,8.15
2023-02-18T20:47:51.061Z,10.05
2023-02-18T20:50:17.908Z,6.00
2023-02-18T20:52:44.623Z,9.15
2023-02-18T20:55:11.372Z,5.72
2023-02-18T20:57:38.173Z,7.97
2023-02-18T21:00:05.901Z,6.60
2023-02-18T21:02:32.658Z,5.63
2023-02-18T21:04:59.424Z,8.45
2023-02-18T21:07:27.360Z,4.30
2023-02-18T21:09:54.430Z,10.02
2023-02-18T21:12:21.298Z,6.60
2023-02-18T21:14:48.351Z,8.18
2023-02-18T21:17:15.104Z,6.70
2023-02-18T21:19:42.184Z,9.50
2023-02-18T21:22:09.020Z,7.32
2023-02-18T21:24:35.825Z,9.15
2023-02-18T21:27:02.749Z,10.88
2023-02-18T21:29:29.536Z,9.93
2023-02-18T21:31:56.351Z,9.75
2023-02-18T21:34:23.457Z,10.15
2023-02-18T21:36:50.151Z,4.43
2023-02-18T21:39:17.070Z,5.13
2023-02-18T21:41:44.026Z,5.55
2023-02-18T21:44:10.801Z,7.18
2023-02-18T21:46:38.950Z,8.65
2023-02-18T21:49:06.418Z,10.52
2023-02-18T21:51:54.402Z,10.73
2023-02-18T21:54:30.804Z,7.03
2023-02-18T21:56:59.422Z,9.65
2023-02-18T21:59:28.722Z,11.35
2023-02-18T22:01:56.398Z,8.45
2023-02-18T22:04:23.385Z,11.02
2023-02-18T22:06:51.218Z,3.92
2023-02-18T22:09:18.072Z,8.63
2023-02-18T22:11:45.015Z,5.13
2023-02-18T22:14:13.393Z,9.35
2023-02-18T22:16:41.414Z,9.68
2023-02-18T22:19:09.106Z,11.32
2023-02-18T22:21:35.752Z,7.55
2023-02-18T22:24:03.898Z,6.50
2023-02-18T22:26:30.623Z,12.88
2023-02-18T22:28:58.920Z,9.43
2023-02-18T22:31:28.112Z,6.40
2023-02-18T22:33:56.993Z,9.50
2023-02-18T22:36:25.704Z,11.80
2023-02-18T22:38:53.921Z,6.90
2023-02-18T22:41:23.058Z,7.10
2023-02-18T22:43:57.270Z,11.40
2023-02-18T22:46:24.202Z,7.63
2023-02-18T22:48:51.473Z,7.68
2023-02-18T22:51:25.042Z,7.97
2023-02-18T22:53:53.656Z,8.02
2023-02-18T22:56:21.988Z,3.90
2023-02-18T22:58:50.872Z,8.65
2023-02-18T23:01:31.262Z,6.82
2023-02-18T23:04:03.935Z,8.90
2023-02-18T23:06:30.705Z,10.80
2023-02-18T23:08:57.690Z,7.55
2023-02-18T23:11:24.580Z,9.77
2023-02-18T23:14:09.698Z,6.18
2023-02-18T23:19:37.139Z,10.02
2023-02-18T23:22:04.842Z,8.18
2023-02-18T23:24:34.200Z,10.27
2023-02-18T23:27:01.321Z,9.35
2023-02-18T23:29:28.419Z,8.52
2023-02-18T23:31:55.250Z,10.52
2023-02-18T23:34:22.380Z,8.32
2023-02-18T23:36:49.079Z,10.32
2023-02-18T23:39:18.201Z,12.55
2023-02-18T23:41:45.883Z,10.27
2023-02-18T23:44:18.273Z,10.55
2023-02-18T23:46:45.033Z,13.02
2023-02-18T23:49:17.271Z,9.57
2023-02-18T23:51:44.581Z,8.27
2023-02-18T23:54:11.809Z,9.57
2023-02-18T23:56:38.776Z,9.80
2023-02-18T23:59:16.028Z,8.68
